Time;durP1;ratioP1;P1;durP2;ratioP2;P2;SDS_P1;SDS_P2;PMS_P1;PMS_P2;Temp;Humidity;BMP_temperature;BMP_pressure;BME280_temperature;BME280_humidity;BME280_pressure;Samples;Min_cycle;Max_cycle;Signal;HPM_P1;HPM_P2
2022/03/16 00:02:22;;;;;;;14.47;10.80;;;;;;;4.53;88.74;102662.88;4972246;28;20262;-73
2022/03/16 00:04:51;;;;;;;14.90;10.30;;;;;;;4.52;87.86;102661.09;4972179;28;20220;-73
2022/03/16 00:07:17;;;;;;;13.80;10.37;;;;;;;4.48;88.37;102665.84;4970724;28;20279;-73
2022/03/16 00:09:44;;;;;;;16.17;10.27;;;;;;;4.40;88.05;102670.38;4971469;28;20188;-73
2022/03/16 00:12:11;;;;;;;13.53;9.63;;;;;;;4.27;88.52;102669.34;4972109;28;20180;-73
2022/03/16 00:14:37;;;;;;;14.20;9.43;;;;;;;4.26;87.49;102677.72;4971938;28;20219;-73
2022/03/16 00:17:06;;;;;;;13.63;9.13;;;;;;;4.23;87.75;102677.53;4972108;28;20180;-73
2022/03/16 00:19:32;;;;;;;17.03;10.50;;;;;;;4.22;89.59;102679.16;4971836;28;20184;-73
2022/03/16 00:21:59;;;;;;;15.93;10.87;;;;;;;4.25;90.20;102686.09;4971804;28;20306;-73
2022/03/16 00:24:24;;;;;;;13.27;9.03;;;;;;;4.26;90.44;102692.94;4971696;28;20224;-73
2022/03/16 00:26:50;;;;;;;15.53;9.60;;;;;;;4.29;89.70;102690.63;4970343;28;20219;-74
2022/03/16 00:29:15;;;;;;;14.37;9.40;;;;;;;4.29;89.91;102698.25;4954243;28;20195;-73
2022/03/16 00:31:41;;;;;;;17.03;9.53;;;;;;;4.16;89.58;102701.53;4971535;28;20288;-73
2022/03/16 00:34:08;;;;;;;12.43;9.10;;;;;;;4.17;90.31;102702.38;4970278;28;20200;-73
2022/03/16 00:36:33;;;;;;;14.30;8.70;;;;;;;4.17;89.81;102707.47;4970179;28;20207;-73
2022/03/16 00:38:59;;;;;;;13.80;9.33;;;;;;;4.19;89.67;102708.47;4970248;28;20219;-73
2022/03/16 00:41:25;;;;;;;15.00;9.80;;;;;;;4.23;89.63;102708.81;4970069;28;20247;-73
2022/03/16 00:43:52;;;;;;;16.27;10.07;;;;;;;4.25;90.16;102714.88;4969414;28;20646;-73
2022/03/16 00:46:18;;;;;;;15.13;10.20;;;;;;;4.38;90.47;102724.28;4971458;28;20186;-73
2022/03/16 00:48:43;;;;;;;15.03;9.93;;;;;;;4.42;90.58;102718.66;4954144;28;20207;-73
2022/03/16 00:51:09;;;;;;;16.27;9.97;;;;;;;4.41;91.86;102725.38;4969845;28;20211;-73
2022/03/16 00:53:35;;;;;;;15.20;10.20;;;;;;;4.44;91.60;102719.66;4973880;28;20184;-73
2022/03/16 00:56:02;;;;;;;17.03;10.03;;;;;;;4.46;91.56;102715.59;4990869;28;20191;-73
2022/03/16 00:58:27;;;;;;;12.70;9.80;;;;;;;4.50;91.90;102722.63;4989517;28;20241;-73
2022/03/16 01:00:53;;;;;;;14.63;9.47;;;;;;;4.53;92.33;102715.25;4989116;28;20235;-73
2022/03/16 01:03:18;;;;;;;13.07;9.47;;;;;;;4.57;93.03;102717.25;4990628;28;20307;-73
2022/03/16 01:05:46;;;;;;;13.20;8.93;;;;;;;4.64;93.20;102727.94;4990455;28;20207;-73
2022/03/16 01:08:12;;;;;;;14.17;9.07;;;;;;;4.70;93.36;102724.97;4979992;28;20207;-73
2022/03/16 01:10:37;;;;;;;14.77;9.20;;;;;;;4.75;93.40;102726.19;4981200;28;20189;-73
2022/03/16 01:13:03;;;;;;;13.50;9.27;;;;;;;4.75;94.54;102729.59;4982377;28;20199;-73
2022/03/16 01:15:28;;;;;;;14.10;9.63;;;;;;;4.77;94.36;102733.16;4975135;28;20208;-73
2022/03/16 01:17:53;;;;;;;17.10;9.67;;;;;;;4.79;94.84;102723.97;4985746;28;20196;-73
2022/03/16 01:20:19;;;;;;;15.33;9.63;;;;;;;4.78;94.46;102722.22;4970716;28;20215;-72
2022/03/16 01:22:45;;;;;;;13.70;9.50;;;;;;;4.79;94.58;102733.25;4969482;28;20218;-73
2022/03/16 01:25:11;;;;;;;13.03;9.43;;;;;;;4.81;94.94;102730.06;4970230;28;20574;-73
2022/03/16 01:27:37;;;;;;;15.07;10.03;;;;;;;4.85;94.80;102733.69;4981600;28;20287;-72
2022/03/16 01:30:03;;;;;;;15.70;10.40;;;;;;;4.89;94.46;102733.16;4971600;28;20354;-73
2022/03/16 01:32:29;;;;;;;17.50;11.07;;;;;;;4.90;94.55;102732.38;4973462;28;20233;-73
2022/03/16 01:34:54;;;;;;;17.87;11.50;;;;;;;4.91;94.99;102729.94;4985272;28;20216;-73
2022/03/16 01:37:20;;;;;;;20.27;13.07;;;;;;;4.95;94.73;102736.13;4970881;28;20199;-73
2022/03/16 01:39:45;;;;;;;21.07;12.93;;;;;;;4.99;94.91;102738.09;4982422;28;20223;-74
2022/03/16 01:42:11;;;;;;;24.27;13.70;;;;;;;4.96;94.62;102743.84;4969456;28;20184;-74
2022/03/16 01:44:47;;;;;;;19.80;13.13;;;;;;;4.97;94.74;102745.59;4972315;28;20212;-73
2022/03/16 01:47:15;;;;;;;22.23;13.10;;;;;;;4.97;95.02;102744.75;4985803;28;20187;-73
2022/03/16 01:49:40;;;;;;;21.77;13.10;;;;;;;4.99;94.97;102749.16;4970486;28;20199;-73
2022/03/16 01:52:07;;;;;;;22.97;13.23;;;;;;;5.03;94.91;102752.78;4984175;28;20287;-73
2022/03/16 01:54:34;;;;;;;20.73;12.80;;;;;;;5.04;94.77;102760.53;4970329;28;20208;-74
2022/03/16 01:57:00;;;;;;;21.67;13.33;;;;;;;5.07;94.78;102752.25;4985932;28;20271;-73
2022/03/16 01:59:25;;;;;;;22.67;14.03;;;;;;;5.10;94.53;102755.88;4964590;28;20291;-73
2022/03/16 02:01:50;;;;;;;18.63;11.57;;;;;;;5.14;95.17;102757.88;4973108;28;20235;-73
2022/03/16 02:04:16;;;;;;;21.83;13.40;;;;;;;5.14;94.63;102762.03;4980164;28;20604;-73
2022/03/16 02:06:41;;;;;;;24.13;13.40;;;;;;;5.16;94.73;102761.38;4984205;28;20216;-73
2022/03/16 02:09:06;;;;;;;21.33;12.30;;;;;;;5.17;95.15;102764.81;4965097;28;20263;-73
2022/03/16 02:11:32;;;;;;;20.27;13.03;;;;;;;5.17;94.60;102763.16;4980988;28;20279;-73
2022/03/16 02:13:58;;;;;;;23.77;14.07;;;;;;;5.19;95.21;102763.25;4974125;28;20235;-73
2022/03/16 02:16:23;;;;;;;21.77;13.70;;;;;;;5.20;94.92;102767.59;4990370;28;20712;-73
2022/03/16 02:18:49;;;;;;;24.60;14.47;;;;;;;5.21;95.17;102770.22;4986576;28;20651;-73
2022/03/16 02:21:15;;;;;;;22.43;13.87;;;;;;;5.25;94.90;102773.88;4982717;28;20242;-72
2022/03/16 02:23:41;;;;;;;24.13;14.53;;;;;;;5.27;94.74;102775.75;4989178;28;20582;-73
2022/03/16 02:26:06;;;;;;;29.20;15.00;;;;;;;5.28;94.83;102777.50;4987499;28;20290;-73
2022/03/16 02:28:32;;;;;;;20.57;14.17;;;;;;;5.26;95.40;102774.00;4983404;28;20223;-73
2022/03/16 02:30:59;;;;;;;25.30;14.90;;;;;;;5.28;94.80;102782.59;4976376;28;20201;-73
2022/03/16 02:33:25;;;;;;;24.83;13.87;;;;;;;5.24;94.81;102782.22;4973793;28;20196;-73
2022/03/16 02:35:51;;;;;;;22.67;14.10;;;;;;;5.20;94.65;102782.81;4980325;28;20645;-73
2022/03/16 02:38:16;;;;;;;24.27;14.03;;;;;;;5.20;94.76;102782.81;4992392;28;20176;-72
2022/03/16 02:40:41;;;;;;;23.47;14.47;;;;;;;5.19;94.51;102791.19;4973775;28;20578;-73
2022/03/16 02:43:07;;;;;;;20.27;13.40;;;;;;;5.23;94.26;102781.38;4975145;28;20227;-73
2022/03/16 02:45:32;;;;;;;24.93;14.03;;;;;;;5.27;94.25;102788.44;4973873;28;20204;-73
2022/03/16 02:47:58;;;;;;;21.50;13.97;;;;;;;5.28;94.19;102789.31;4973787;28;20200;-73
2022/03/16 02:50:23;;;;;;;26.53;14.43;;;;;;;5.26;94.23;102786.69;4979485;28;20184;-73
2022/03/16 02:52:49;;;;;;;27.43;15.33;;;;;;;5.30;94.53;102795.41;4993246;28;20218;-73
2022/03/16 02:55:14;;;;;;;22.87;13.90;;;;;;;5.23;94.84;102793.16;4988315;28;20211;-73
2022/03/16 02:57:41;;;;;;;22.60;14.47;;;;;;;5.21;94.47;102789.66;4973774;28;20658;-73
2022/03/16 03:00:08;;;;;;;26.57;14.40;;;;;;;5.22;94.65;102783.78;4982488;28;20563;-73
2022/03/16 03:02:34;;;;;;;30.60;15.57;;;;;;;5.23;94.52;102790.63;4992741;28;20216;-73
2022/03/16 03:04:59;;;;;;;25.77;14.90;;;;;;;5.14;94.38;102795.03;4989446;28;20259;-73
2022/03/16 03:07:25;;;;;;;26.50;15.00;;;;;;;5.10;94.28;102791.41;4978062;28;20204;-73
2022/03/16 03:09:50;;;;;;;26.93;15.33;;;;;;;5.06;94.61;102796.19;4986905;28;20287;-73
2022/03/16 03:12:16;;;;;;;28.60;16.43;;;;;;;5.00;94.09;102794.06;4982431;28;20204;-72
2022/03/16 03:14:42;;;;;;;31.37;16.27;;;;;;;4.98;94.62;102787.97;4973132;28;20209;-73
2022/03/16 03:17:07;;;;;;;26.73;15.50;;;;;;;4.98;94.83;102787.13;4980262;28;20185;-73
2022/03/16 03:19:33;;;;;;;30.60;15.83;;;;;;;5.02;94.04;102787.44;4971880;28;20188;-73
2022/03/16 03:21:58;;;;;;;33.73;17.07;;;;;;;4.94;94.34;102782.59;4990817;28;20191;-73
2022/03/16 03:24:24;;;;;;;36.73;18.03;;;;;;;4.96;94.10;102781.91;4992421;28;20228;-73
2022/03/16 03:26:49;;;;;;;34.20;17.60;;;;;;;4.90;94.33;102786.56;4991546;28;20207;-73
2022/03/16 03:29:15;;;;;;;32.43;16.23;;;;;;;4.88;93.56;102777.94;4974123;28;20204;-73
2022/03/16 03:31:41;;;;;;;33.70;17.80;;;;;;;4.84;93.66;102781.00;4972524;28;20205;-73
2022/03/16 03:34:06;;;;;;;32.43;17.30;;;;;;;4.87;94.00;102780.34;4971593;28;20643;-72
2022/03/16 03:36:32;;;;;;;34.37;18.40;;;;;;;4.86;94.46;102773.53;4988148;28;20284;-73
2022/03/16 03:38:57;;;;;;;34.73;17.23;;;;;;;4.79;93.85;102777.25;4992141;28;20551;-72
2022/03/16 03:41:23;;;;;;;31.23;16.23;;;;;;;4.75;94.16;102777.81;4991980;28;20645;-73
2022/03/16 03:43:48;;;;;;;30.90;16.33;;;;;;;4.69;93.32;102781.56;4991966;28;20282;-72
2022/03/16 03:46:14;;;;;;;33.20;16.07;;;;;;;4.62;93.40;102782.78;4979016;28;20283;-73
2022/03/16 03:48:39;;;;;;;30.10;17.07;;;;;;;4.56;93.10;102782.28;4972621;28;20542;-73
2022/03/16 03:51:04;;;;;;;32.73;16.27;;;;;;;4.51;93.11;102785.28;4979044;28;20602;-73
2022/03/16 03:53:29;;;;;;;34.50;16.87;;;;;;;4.44;92.75;102783.03;4974060;28;20299;-73
2022/03/16 03:55:55;;;;;;;28.57;15.00;;;;;;;4.37;92.60;102784.22;4961407;28;20219;-73
2022/03/16 03:58:20;;;;;;;32.87;16.00;;;;;;;4.27;92.43;102785.94;4970967;28;20223;-73
2022/03/16 04:00:46;;;;;;;32.97;15.90;;;;;;;4.24;92.29;102790.81;4971738;28;20200;-73
2022/03/16 04:03:11;;;;;;;31.57;15.10;;;;;;;4.19;91.54;102789.59;4982748;28;20227;-72
2022/03/16 04:05:36;;;;;;;25.37;14.20;;;;;;;4.08;91.42;102793.84;4983505;28;20270;-73
2022/03/16 04:08:02;;;;;;;26.50;14.73;;;;;;;3.95;90.86;102793.66;4972379;28;20196;-73
2022/03/16 04:10:27;;;;;;;27.87;14.20;;;;;;;3.90;90.76;102794.06;4971616;28;20521;-73
2022/03/16 04:12:53;;;;;;;25.97;13.83;;;;;;;3.82;90.16;102790.06;4972144;28;20650;-72
2022/03/16 04:15:20;;;;;;;22.77;14.03;;;;;;;3.76;90.53;102794.66;4988674;28;20603;-73
2022/03/16 04:17:45;;;;;;;28.27;14.27;;;;;;;3.68;89.95;102795.72;4991285;28;20202;-73
2022/03/16 04:20:11;;;;;;;25.50;14.87;;;;;;;3.67;90.46;102802.41;4990411;28;20187;-72
2022/03/16 04:22:36;;;;;;;24.57;13.37;;;;;;;3.67;90.03;102801.53;4989975;28;20266;-72
2022/03/16 04:25:03;;;;;;;21.70;13.17;;;;;;;3.57;90.18;102807.53;4990119;28;20701;-73
2022/03/16 04:27:29;;;;;;;22.43;13.27;;;;;;;3.55;89.52;102800.59;4972046;28;20196;-73
2022/03/16 04:29:55;;;;;;;26.07;13.90;;;;;;;3.43;90.04;102802.13;4976683;28;20208;-72
2022/03/16 04:32:20;;;;;;;25.13;14.40;;;;;;;3.48;89.63;102805.91;4971941;28;20218;-72
2022/03/16 04:34:45;;;;;;;29.03;14.77;;;;;;;3.38;90.29;102811.03;4984375;28;20216;-73
2022/03/16 04:37:11;;;;;;;21.73;12.87;;;;;;;3.30;89.71;102812.94;4983195;28;20235;-72
2022/03/16 04:39:36;;;;;;;26.90;13.60;;;;;;;3.26;89.33;102813.47;4971630;28;20184;-73
2022/03/16 04:42:02;;;;;;;24.70;13.50;;;;;;;3.24;90.13;102817.53;4985953;28;20235;-73
2022/03/16 04:44:27;;;;;;;21.93;13.70;;;;;;;3.18;89.14;102817.03;4971363;28;20216;-73
2022/03/16 04:46:52;;;;;;;23.10;12.70;;;;;;;3.14;89.82;102822.63;4989615;28;20196;-72
2022/03/16 04:49:17;;;;;;;26.53;13.70;;;;;;;3.03;89.77;102817.47;4990986;28;20319;-73
2022/03/16 04:51:43;;;;;;;28.93;14.87;;;;;;;3.09;90.72;102823.00;4975211;28;20188;-73
2022/03/16 04:54:08;;;;;;;30.00;14.40;;;;;;;3.05;90.37;102806.69;4972442;28;20215;-73
2022/03/16 04:56:35;;;;;;;29.93;14.37;;;;;;;3.04;90.07;102817.56;4977066;28;20185;-72
2022/03/16 04:59:01;;;;;;;33.33;14.90;;;;;;;3.04;90.54;102809.09;4969509;28;20184;-72
2022/03/16 05:01:27;;;;;;;28.20;15.37;;;;;;;2.95;90.28;102805.81;4971057;28;20192;-73
2022/03/16 05:03:52;;;;;;;31.33;16.30;;;;;;;2.92;91.16;102808.09;4971132;28;20228;-72
2022/03/16 05:06:18;;;;;;;33.47;15.93;;;;;;;2.87;90.96;102807.75;4987822;28;20357;-72
2022/03/16 05:08:45;;;;;;;23.53;14.20;;;;;;;2.86;90.66;102805.09;4985984;28;20239;-73
2022/03/16 05:11:11;;;;;;;24.03;14.13;;;;;;;2.86;90.48;102803.44;4970759;28;20228;-72
2022/03/16 05:13:36;;;;;;;29.30;14.33;;;;;;;2.76;90.95;102803.44;4971029;28;20238;-73
2022/03/16 05:16:02;;;;;;;25.57;13.83;;;;;;;2.67;90.16;102801.81;4971034;28;20650;-73
2022/03/16 05:18:27;;;;;;;26.37;14.33;;;;;;;2.66;90.06;102798.41;4970967;28;20175;-73
2022/03/16 05:20:52;;;;;;;27.93;15.30;;;;;;;2.60;90.69;102797.00;4970880;28;20204;-72
2022/03/16 05:23:18;;;;;;;30.97;15.33;;;;;;;2.62;90.68;102803.09;4970376;28;20258;-73
2022/03/16 05:25:43;;;;;;;28.33;15.37;;;;;;;2.67;91.83;102804.34;4970823;28;20573;-73
2022/03/16 05:28:08;;;;;;;28.07;15.00;;;;;;;2.64;91.97;102811.66;4971010;28;20267;-73
2022/03/16 05:30:34;;;;;;;25.13;16.30;;;;;;;2.58;91.79;102813.69;4969319;28;20275;-73
2022/03/16 05:33:00;;;;;;;24.70;15.10;;;;;;;2.57;91.75;102811.94;4972251;28;20268;-73
2022/03/16 05:35:26;;;;;;;25.73;15.10;;;;;;;2.47;90.41;102822.03;4979780;28;20232;-73
2022/03/16 05:37:51;;;;;;;24.80;14.67;;;;;;;2.43;91.20;102828.47;4990233;28;20201;-72
2022/03/16 05:40:17;;;;;;;26.10;13.37;;;;;;;2.45;90.67;102826.06;4975246;28;20558;-72
2022/03/16 05:42:42;;;;;;;22.40;13.70;;;;;;;2.40;90.22;102829.88;4970781;28;20704;-72
2022/03/16 05:45:08;;;;;;;26.70;14.40;;;;;;;2.39;89.78;102828.09;4970621;28;20296;-73
2022/03/16 05:47:34;;;;;;;22.77;13.07;;;;;;;2.39;89.73;102844.13;4969771;28;20204;-73
2022/03/16 05:49:59;;;;;;;23.07;13.57;;;;;;;2.40;89.69;102837.44;4969345;28;20286;-72
2022/03/16 05:52:25;;;;;;;21.50;12.77;;;;;;;2.44;90.07;102842.00;4969617;28;20316;-73
2022/03/16 05:54:52;;;;;;;27.30;13.80;;;;;;;2.43;89.94;102835.19;4975209;28;20672;-73
2022/03/16 05:57:18;;;;;;;27.93;14.60;;;;;;;2.40;89.67;102845.03;4990159;28;20637;-72
2022/03/16 05:59:44;;;;;;;30.77;15.37;;;;;;;2.39;89.82;102846.66;4990097;28;20190;-73
2022/03/16 06:02:10;;;;;;;30.33;15.23;;;;;;;2.49;89.91;102853.38;4989952;28;20188;-72
2022/03/16 06:04:37;;;;;;;33.47;14.90;;;;;;;2.52;90.38;102852.00;4972363;28;20230;-72
2022/03/16 06:07:04;;;;;;;30.07;14.93;;;;;;;2.58;90.01;102856.69;4989954;28;20195;-73
2022/03/16 06:09:29;;;;;;;30.57;15.07;;;;;;;2.65;91.17;102853.88;4989399;28;20611;-73
2022/03/16 06:11:54;;;;;;;24.37;14.03;;;;;;;2.62;90.79;102862.09;4989923;28;20196;-72
2022/03/16 06:14:20;;;;;;;24.97;14.53;;;;;;;2.61;91.55;102861.97;4989853;28;20234;-73
2022/03/16 06:16:47;;;;;;;29.27;14.50;;;;;;;2.79;90.56;102856.81;4989924;28;20195;-72
2022/03/16 06:19:12;;;;;;;29.03;15.27;;;;;;;2.87;91.19;102872.59;4989785;28;20192;-73
2022/03/16 06:21:38;;;;;;;29.57;14.87;;;;;;;2.91;90.44;102865.41;4988241;28;20202;-72
2022/03/16 06:24:03;;;;;;;26.97;15.37;;;;;;;2.99;90.77;102871.97;4989629;28;20250;-73
2022/03/16 06:26:28;;;;;;;29.23;16.80;;;;;;;3.03;91.22;102871.47;4989669;28;20231;-73
2022/03/16 06:28:54;;;;;;;29.10;16.23;;;;;;;3.12;91.84;102879.78;4975471;28;20562;-72
2022/03/16 06:31:19;;;;;;;25.60;14.70;;;;;;;3.19;92.52;102881.19;4969054;28;20192;-72
2022/03/16 06:33:44;;;;;;;32.57;16.67;;;;;;;3.30;92.13;102890.50;4952989;28;20242;-72
2022/03/16 06:36:10;;;;;;;30.97;15.87;;;;;;;3.42;92.58;102896.59;4970471;28;20200;-72
2022/03/16 06:38:35;;;;;;;29.03;15.57;;;;;;;3.60;92.07;102896.41;4969014;28;20197;-73
2022/03/16 06:41:00;;;;;;;33.53;17.40;;;;;;;3.82;91.85;102899.00;4970194;28;20199;-72
2022/03/16 06:43:26;;;;;;;30.73;15.63;;;;;;;3.93;92.06;102898.19;4972789;28;20228;-72
2022/03/16 06:45:51;;;;;;;31.57;18.10;;;;;;;4.13;91.57;102893.91;4973843;28;20212;-72
2022/03/16 06:48:21;;;;;;;30.43;16.63;;;;;;;4.45;91.45;102892.22;4972568;28;20181;-72
2022/03/16 06:50:46;;;;;;;29.30;16.80;;;;;;;4.74;91.15;102889.34;4973582;28;20222;-72
2022/03/16 06:53:12;;;;;;;28.03;16.20;;;;;;;4.99;91.48;102888.75;4973643;28;20177;-72
2022/03/16 06:55:37;;;;;;;33.63;18.83;;;;;;;5.21;91.38;102887.00;4992513;28;20274;-72
2022/03/16 06:58:03;;;;;;;36.20;19.00;;;;;;;5.41;91.11;102878.31;4991843;28;20187;-73
2022/03/16 07:00:28;;;;;;;32.83;18.63;;;;;;;5.59;91.66;102882.19;4991737;28;20283;-72
2022/03/16 07:02:57;;;;;;;30.27;17.50;;;;;;;5.90;90.64;102883.63;4992959;28;20235;-72
2022/03/16 07:05:31;;;;;;;32.77;17.40;;;;;;;6.07;89.95;102888.22;4992849;28;20258;-73
2022/03/16 07:07:58;;;;;;;32.13;17.17;;;;;;;6.28;89.60;102885.53;4992758;28;20196;-73
2022/03/16 07:10:24;;;;;;;29.17;17.33;;;;;;;6.44;89.21;102890.88;4992591;28;20259;-73
2022/03/16 07:12:49;;;;;;;29.13;17.13;;;;;;;6.67;88.77;102888.22;4971537;28;20298;-73
2022/03/16 07:15:15;;;;;;;29.93;17.03;;;;;;;6.43;88.83;102891.66;4979055;28;20702;-72
2022/03/16 07:17:40;;;;;;;28.43;17.30;;;;;;;6.35;89.44;102907.19;4990893;28;20246;-73
2022/03/16 07:20:06;;;;;;;33.67;18.13;;;;;;;6.31;89.77;102903.53;4990730;28;20222;-73
2022/03/16 07:22:33;;;;;;;34.23;18.33;;;;;;;6.35;90.35;102897.88;4976913;28;20191;-74
2022/03/16 07:24:59;;;;;;;33.87;18.63;;;;;;;6.30;89.70;102900.88;4972982;28;20552;-73
2022/03/16 07:27:24;;;;;;;32.57;18.83;;;;;;;6.40;89.86;102901.63;4972511;28;20207;-72
2022/03/16 07:29:50;;;;;;;33.27;19.03;;;;;;;6.46;89.84;102898.63;4972896;28;20192;-72
2022/03/16 07:32:15;;;;;;;31.43;18.87;;;;;;;6.50;89.97;102898.06;4972426;28;20197;-73
2022/03/16 07:34:41;;;;;;;33.43;19.00;;;;;;;6.50;89.69;102908.22;4972801;28;20247;-73
2022/03/16 07:37:06;;;;;;;37.83;20.07;;;;;;;6.53;90.05;102916.06;4987208;28;20203;-73
2022/03/16 07:39:31;;;;;;;36.07;20.37;;;;;;;6.44;90.35;102910.38;4991980;28;20188;-72
2022/03/16 07:41:57;;;;;;;39.57;20.27;;;;;;;6.44;90.42;102920.53;4991657;28;20703;-72
2022/03/16 07:44:23;;;;;;;37.10;19.17;;;;;;;6.46;89.93;102918.97;4990318;28;20246;-72
2022/03/16 07:46:48;;;;;;;33.70;19.20;;;;;;;6.61;90.36;102920.00;4985874;28;20184;-72
2022/03/16 07:49:14;;;;;;;34.17;19.00;;;;;;;6.69;90.41;102916.34;4977888;28;20527;-73
2022/03/16 07:51:39;;;;;;;30.07;19.63;;;;;;;6.71;90.57;102922.41;4985870;28;20213;-72
2022/03/16 07:54:04;;;;;;;32.90;18.90;;;;;;;6.74;89.62;102912.44;4974003;28;20583;-73
2022/03/16 07:56:30;;;;;;;31.70;19.13;;;;;;;6.70;90.48;102919.00;4976358;28;20287;-73
2022/03/16 07:58:58;;;;;;;34.27;19.43;;;;;;;6.76;89.38;102914.31;4982516;28;20203;-73
2022/03/16 08:01:24;;;;;;;31.93;19.80;;;;;;;6.86;89.02;102914.16;4968385;28;20556;-72
2022/03/16 08:03:49;;;;;;;31.37;17.27;;;;;;;6.94;88.47;102920.66;4991418;28;20298;-73
2022/03/16 08:06:15;;;;;;;29.03;17.63;;;;;;;7.02;88.19;102926.25;4990218;28;20202;-73
2022/03/16 08:08:40;;;;;;;30.30;17.97;;;;;;;7.08;87.96;102936.84;4991369;28;20207;-72
2022/03/16 08:11:07;;;;;;;31.70;17.20;;;;;;;7.25;87.36;102937.19;4991095;28;20215;-72
2022/03/16 08:13:32;;;;;;;31.13;17.47;;;;;;;7.18;86.77;102929.03;4987032;28;20188;-72
2022/03/16 08:15:58;;;;;;;34.73;18.50;;;;;;;7.29;88.07;102930.63;4972410;28;20269;-72
2022/03/16 08:18:23;;;;;;;28.30;17.00;;;;;;;7.25;87.79;102936.28;4972953;28;20192;-73
2022/03/16 08:20:48;;;;;;;31.97;18.40;;;;;;;7.38;86.98;102932.09;4973500;28;20192;-72
2022/03/16 08:23:14;;;;;;;30.37;16.87;;;;;;;7.52;85.75;102930.47;4989442;28;20219;-72
2022/03/16 08:25:40;;;;;;;25.97;16.30;;;;;;;7.75;86.31;102933.72;4986481;28;20208;-73
2022/03/16 08:28:05;;;;;;;27.83;16.17;;;;;;;7.84;85.01;102938.50;4972028;28;20395;-72
2022/03/16 08:30:30;;;;;;;28.40;17.13;;;;;;;8.01;84.97;102937.94;4976895;28;20633;-73
2022/03/16 08:32:56;;;;;;;29.97;16.93;;;;;;;8.14;84.94;102937.88;4971999;28;20218;-73
2022/03/16 08:35:23;;;;;;;29.83;17.80;;;;;;;8.28;84.33;102932.91;4972101;28;20217;-73
2022/03/16 08:37:48;;;;;;;28.33;17.30;;;;;;;8.19;83.87;102932.28;4989680;28;20542;-72
2022/03/16 08:40:16;;;;;;;29.07;16.77;;;;;;;8.45;84.16;102937.38;4989545;28;20190;-73
2022/03/16 08:42:42;;;;;;;29.33;17.40;;;;;;;8.66;82.19;102935.25;4991137;28;20269;-72
2022/03/16 08:45:07;;;;;;;31.27;17.13;;;;;;;8.62;82.67;102926.50;4983663;28;20295;-72
2022/03/16 08:47:33;;;;;;;28.07;16.63;;;;;;;8.93;82.24;102927.56;4977554;28;20272;-72
2022/03/16 08:49:58;;;;;;;28.63;16.90;;;;;;;8.87;81.08;102923.75;4971483;28;20199;-72
2022/03/16 08:52:24;;;;;;;24.80;16.00;;;;;;;9.09;81.35;102921.66;4987659;28;20558;-72
2022/03/16 08:54:50;;;;;;;26.53;16.50;;;;;;;9.25;80.19;102914.97;4971998;28;20227;-72
2022/03/16 08:57:16;;;;;;;24.50;15.23;;;;;;;9.52;78.55;102918.22;4976326;28;20191;-73
2022/03/16 08:59:41;;;;;;;24.13;15.33;;;;;;;9.68;77.07;102923.44;4986387;28;20195;-72
2022/03/16 09:02:07;;;;;;;23.97;15.20;;;;;;;9.84;76.14;102926.03;4978234;28;20270;-72
2022/03/16 09:04:34;;;;;;;22.70;13.83;;;;;;;10.06;74.44;102926.47;4988168;28;20224;-74
2022/03/16 09:07:00;;;;;;;23.47;14.67;;;;;;;9.93;74.84;102927.44;4969968;28;20185;-73
2022/03/16 09:09:26;;;;;;;23.30;14.40;;;;;;;9.95;73.67;102932.66;4971083;28;20193;-72
2022/03/16 09:11:51;;;;;;;24.03;14.40;;;;;;;10.40;73.27;102925.81;4988969;28;20187;-73
2022/03/16 09:14:17;;;;;;;21.73;13.37;;;;;;;10.69;71.99;102917.97;4977399;28;20211;-72
2022/03/16 09:16:44;;;;;;;22.23;13.47;;;;;;;11.01;70.65;102920.50;4989724;28;20202;-73
2022/03/16 09:19:10;;;;;;;20.10;12.93;;;;;;;11.07;69.81;102928.50;4990338;28;20201;-73
2022/03/16 09:21:35;;;;;;;20.97;13.60;;;;;;;11.10;69.63;102928.66;4973827;28;20200;-73
2022/03/16 09:24:00;;;;;;;21.00;14.03;;;;;;;11.23;70.48;102931.03;4987258;28;20220;-73
2022/03/16 09:26:27;;;;;;;20.47;13.67;;;;;;;11.18;70.67;102929.94;4989516;28;20723;-73
2022/03/16 09:28:52;;;;;;;20.60;14.40;;;;;;;11.15;70.29;102931.47;4977707;28;20674;-73
2022/03/16 09:31:17;;;;;;;20.97;13.73;;;;;;;11.61;68.37;102936.41;4978564;28;20220;-73
2022/03/16 09:33:43;;;;;;;20.40;13.07;;;;;;;13.21;64.80;102924.13;4969250;28;20560;-73
2022/03/16 09:36:09;;;;;;;16.80;11.60;;;;;;;15.29;55.38;102922.72;4970743;28;20192;-73
2022/03/16 09:38:35;;;;;;;17.83;11.47;;;;;;;16.41;52.03;102916.03;4970683;28;20176;-73
2022/03/16 09:41:02;;;;;;;17.30;10.80;;;;;;;17.37;49.25;102907.44;4977749;28;20234;-74
2022/03/16 09:43:31;;;;;;;19.33;12.53;;;;;;;16.90;50.13;102913.97;4970532;28;20251;-73
2022/03/16 09:46:04;;;;;;;15.93;11.90;;;;;;;17.19;49.38;102926.00;4982834;28;20191;-73
2022/03/16 09:48:31;;;;;;;16.30;11.43;;;;;;;17.93;46.51;102922.66;4982598;28;20701;-73
2022/03/16 09:50:58;;;;;;;16.17;11.17;;;;;;;17.34;47.38;102935.84;4970346;28;20952;-74
2022/03/16 09:53:26;;;;;;;14.17;10.87;;;;;;;18.22;45.66;102930.25;4972542;28;20239;-73
2022/03/16 09:55:52;;;;;;;16.57;11.73;;;;;;;17.23;47.86;102932.97;4985425;28;20580;-74
2022/03/16 09:58:20;;;;;;;14.77;10.90;;;;;;;17.28;47.65;102930.53;4970649;28;20188;-73
2022/03/16 10:00:46;;;;;;;15.57;11.10;;;;;;;17.37;47.04;102934.19;4974274;28;20192;-73
2022/03/16 10:03:12;;;;;;;15.33;11.13;;;;;;;17.68;46.72;102935.91;4970655;28;20219;-73
2022/03/16 10:05:38;;;;;;;15.30;10.90;;;;;;;18.26;45.52;102941.53;4970447;28;20220;-73
2022/03/16 10:08:08;;;;;;;16.37;12.13;;;;;;;18.90;43.85;102947.25;4969100;28;20188;-73
2022/03/16 10:13:21;;;;;;;15.27;11.03;;;;;;;21.95;38.12;102927.06;4985094;28;20202;-74
2022/03/16 10:15:48;;;;;;;14.85;11.02;;;;;;;22.24;37.02;102930.69;4988505;28;20692;-73
2022/03/16 10:18:16;;;;;;;15.47;11.70;;;;;;;20.83;39.63;102941.63;4992194;28;20192;-71
2022/03/16 10:20:42;;;;;;;16.10;11.07;;;;;;;20.49;40.78;102949.91;4982377;28;20196;-74
2022/03/16 10:23:09;;;;;;;15.00;11.43;;;;;;;20.41;39.10;102951.53;4972775;28;20220;-74
2022/03/16 10:25:58;;;;;;;16.40;12.00;;;;;;;19.56;42.67;102948.47;4986759;28;20203;-71
2022/03/16 10:28:29;;;;;;;15.30;11.87;;;;;;;20.91;40.64;102940.03;4993241;28;20184;-74
2022/03/16 10:31:02;;;;;;;12.33;8.10;;;;;;;19.57;38.97;102952.84;4992321;28;20661;-73
2022/03/16 10:33:33;;;;;;;13.33;9.43;;;;;;;18.60;42.09;102959.63;4993134;28;20288;-73
2022/03/16 10:36:08;;;;;;;15.67;10.37;;;;;;;18.12;42.90;102958.53;4980437;28;20275;-73
2022/03/16 10:38:38;;;;;;;15.97;10.60;;;;;;;17.17;45.43;102953.53;4983561;28;20230;-73
2022/03/16 10:46:49;;;;;;;17.70;10.93;;;;;;;15.72;50.31;102959.50;4992239;28;20658;-73
2022/03/16 10:49:19;;;;;;;16.93;11.40;;;;;;;15.66;51.05;102955.00;4992962;28;20195;-73
2022/03/16 10:51:45;;;;;;;18.40;11.83;;;;;;;15.51;51.91;102951.06;4977534;28;20192;-73
2022/03/16 10:54:14;;;;;;;17.57;12.03;;;;;;;15.79;51.29;102948.53;4973558;28;20235;-73
2022/03/16 10:56:40;;;;;;;17.47;11.93;;;;;;;16.00;50.11;102955.25;4989365;28;20196;-73
2022/03/16 10:59:06;;;;;;;19.30;11.87;;;;;;;16.07;50.49;102954.59;4984728;28;20202;-73
2022/03/16 11:01:38;;;;;;;17.20;11.73;;;;;;;16.49;49.89;102950.75;4978561;28;20187;-73
2022/03/16 11:04:04;;;;;;;16.13;11.50;;;;;;;16.30;49.88;102952.72;4979103;28;20768;-73
2022/03/16 11:06:30;;;;;;;16.90;11.77;;;;;;;16.37;49.78;102955.53;4973210;28;20200;-73
2022/03/16 11:08:57;;;;;;;14.80;11.07;;;;;;;17.62;46.72;102946.97;4982705;28;20196;-73
2022/03/16 11:14:08;;;;;;;17.63;11.57;;;;;;;16.95;48.60;102938.25;4974884;28;20709;-73
2022/03/16 11:16:33;;;;;;;17.27;11.20;;;;;;;16.43;48.81;102942.81;4981992;28;20640;-73
2022/03/16 11:19:03;;;;;;;16.00;10.90;;;;;;;17.14;47.16;102939.66;4987557;28;20200;-73
2022/03/16 11:21:45;;;;;;;16.50;11.73;;;;;;;17.09;48.07;102942.09;4979361;28;20186;-73
2022/03/16 11:24:16;;;;;;;19.10;12.90;;;;;;;16.86;48.28;102948.38;4984577;28;20224;-73